createdAt,value
2022-10-18T00:01:00.381Z,38.66
2022-10-18T00:03:27.563Z,38.38
2022-10-18T00:05:54.880Z,38.67
2022-10-18T00:08:22.493Z,39.07
2022-10-18T00:10:51.368Z,39.26
2022-10-18T00:13:18.958Z,39.06
2022-10-18T00:15:50.548Z,38.13
2022-10-18T00:18:17.668Z,39.26
2022-10-18T00:20:44.888Z,39.46
2022-10-18T00:23:11.989Z,40.48
2022-10-18T00:25:39.069Z,40.62
2022-10-18T00:28:07.606Z,41.16
2022-10-18T00:30:34.707Z,40.87
2022-10-18T00:33:01.812Z,40.93
2022-10-18T00:35:29.070Z,40.43
2022-10-18T00:37:56.106Z,40.68
2022-10-18T00:40:23.187Z,40.97
2022-10-18T00:42:50.227Z,41.38
2022-10-18T00:45:22.166Z,40.58
2022-10-18T00:47:55.747Z,40.78
2022-10-18T00:50:25.267Z,41.19
2022-10-18T00:52:57.107Z,41.36
2022-10-18T00:55:25.448Z,41.72
2022-10-18T01:00:23.809Z,41.70
2022-10-18T01:02:51.928Z,41.46
2022-10-18T01:05:20.930Z,41.79
2022-10-18T01:08:19.206Z,42.51
2022-10-18T01:10:55.509Z,42.41
2022-10-18T01:13:37.748Z,42.62
2022-10-18T01:16:17.306Z,42.67
2022-10-18T01:18:51.846Z,43.34
2022-10-18T01:21:33.247Z,43.31
2022-10-18T01:24:38.127Z,42.53
2022-10-18T01:27:49.389Z,42.06
2022-10-18T01:30:48.304Z,42.85
2022-10-18T01:33:30.486Z,42.89
2022-10-18T01:36:05.924Z,42.80
2022-10-18T01:38:37.025Z,42.08
2022-10-18T01:41:11.759Z,42.28
2022-10-18T01:43:46.624Z,42.33
2022-10-18T01:46:20.245Z,42.83
2022-10-18T01:48:48.364Z,42.76
2022-10-18T01:51:15.485Z,42.88
2022-10-18T01:53:42.524Z,43.00
2022-10-18T01:56:29.945Z,43.23
2022-10-18T01:59:29.287Z,43.00
2022-10-18T02:02:10.124Z,43.65
2022-10-18T02:04:47.146Z,43.60
2022-10-18T02:07:26.865Z,44.12
2022-10-18T02:10:04.400Z,43.85
2022-10-18T02:12:34.926Z,44.40
2022-10-18T02:15:06.266Z,44.00
2022-10-18T02:17:35.804Z,44.44
2022-10-18T02:20:08.609Z,44.61
2022-10-18T02:22:39.146Z,44.69
2022-10-18T02:25:11.831Z,44.52
2022-10-18T02:27:38.884Z,44.47
2022-10-18T02:30:07.417Z,44.60
2022-10-18T02:32:43.425Z,45.09
2022-10-18T02:35:20.466Z,45.38
2022-10-18T02:37:50.415Z,45.27
2022-10-18T02:40:18.445Z,44.88
2022-10-18T02:42:49.144Z,44.70
2022-10-18T02:45:17.367Z,44.45
2022-10-18T02:47:46.267Z,44.70
2022-10-18T02:50:14.268Z,43.32
2022-10-18T02:52:41.326Z,43.92
2022-10-18T02:55:09.967Z,44.71
2022-10-18T02:57:37.106Z,43.26
2022-10-18T03:00:06.004Z,42.82
2022-10-18T03:02:33.246Z,42.86
2022-10-18T03:05:01.849Z,48.88
2022-10-18T03:07:29.088Z,50.57
2022-10-18T03:09:56.285Z,47.58
2022-10-18T03:12:23.325Z,46.53
2022-10-18T03:14:50.322Z,48.41
2022-10-18T03:17:17.383Z,45.67
2022-10-18T03:19:44.442Z,46.03
2022-10-18T03:22:12.963Z,47.04
2022-10-18T03:24:40.026Z,45.38
2022-10-18T03:27:07.122Z,46.57
2022-10-18T03:29:34.161Z,45.84
2022-10-18T03:32:01.180Z,45.14
2022-10-18T03:34:28.205Z,44.93
2022-10-18T03:36:55.241Z,45.42
2022-10-18T03:39:23.827Z,45.13
2022-10-18T03:41:50.808Z,44.55
2022-10-18T03:44:17.865Z,44.04
2022-10-18T03:46:44.885Z,44.08
2022-10-18T03:49:11.966Z,43.90
2022-10-18T03:51:38.965Z,45.12
2022-10-18T03:54:06.026Z,43.83
2022-10-18T03:56:34.607Z,44.85
2022-10-18T03:59:01.666Z,43.32
2022-10-18T04:01:28.812Z,43.13
2022-10-18T04:03:56.165Z,41.17
2022-10-18T04:06:23.247Z,42.46
2022-10-18T04:08:50.305Z,41.86
2022-10-18T04:11:17.406Z,43.32
2022-10-18T04:13:45.885Z,44.42
2022-10-18T04:16:12.885Z,44.04
2022-10-18T04:18:40.006Z,43.41
2022-10-18T04:21:07.285Z,44.61
2022-10-18T04:23:37.924Z,44.21
2022-10-18T04:26:06.586Z,45.05
2022-10-18T04:28:34.424Z,44.53
2022-10-18T04:31:03.045Z,43.83
2022-10-18T04:33:30.106Z,44.23
2022-10-18T04:35:57.165Z,44.90
2022-10-18T04:38:24.210Z,44.03
2022-10-18T04:40:51.367Z,43.52
2022-10-18T04:43:18.830Z,44.05
2022-10-18T04:45:45.946Z,44.03
2022-10-18T04:48:14.784Z,44.54
2022-10-18T04:50:41.845Z,44.52
2022-10-18T04:53:08.906Z,44.34
2022-10-18T04:55:36.048Z,44.38
2022-10-18T04:58:03.086Z,43.93
2022-10-18T05:00:30.089Z,44.88
2022-10-18T05:02:57.746Z,44.49
2022-10-18T05:05:43.252Z,44.81
2022-10-18T05:08:13.705Z,44.47
2022-10-18T05:10:41.029Z,44.22
2022-10-18T05:13:08.089Z,44.54
2022-10-18T05:15:35.168Z,44.94
2022-10-18T05:18:02.244Z,45.07
2022-10-18T05:20:30.908Z,45.02
2022-10-18T05:22:58.244Z,45.41
2022-10-18T05:25:25.405Z,45.34
2022-10-18T05:27:52.406Z,45.37
2022-10-18T05:30:19.466Z,45.56
2022-10-18T05:32:46.530Z,45.91
2022-10-18T05:35:13.566Z,45.31
2022-10-18T05:37:42.086Z,44.86
2022-10-18T05:40:10.614Z,44.32
2022-10-18T05:42:37.585Z,44.46
2022-10-18T05:45:05.408Z,45.41
2022-10-18T05:47:32.537Z,44.71
2022-10-18T05:49:59.607Z,44.86
2022-10-18T05:52:26.628Z,45.52
2022-10-18T05:54:55.126Z,45.63
2022-10-18T05:57:22.169Z,45.06
2022-10-18T05:59:49.246Z,45.61
2022-10-18T06:02:16.358Z,45.80
2022-10-18T06:04:43.491Z,45.31
2022-10-18T06:07:11.847Z,45.45
2022-10-18T06:09:39.347Z,45.81
2022-10-18T06:12:07.916Z,45.26
2022-10-18T06:14:35.181Z,45.20
2022-10-18T06:17:02.228Z,43.73
2022-10-18T06:19:29.374Z,43.63
2022-10-18T06:21:56.449Z,43.06
2022-10-18T06:24:23.567Z,43.56
2022-10-18T06:26:50.607Z,44.24
2022-10-18T06:29:19.066Z,44.25
2022-10-18T06:31:46.166Z,44.43
2022-10-18T06:34:13.246Z,44.95
2022-10-18T06:36:40.306Z,45.15
2022-10-18T06:39:07.426Z,45.37
2022-10-18T06:41:34.516Z,45.33
2022-10-18T06:44:01.547Z,45.40
2022-10-18T06:46:30.152Z,44.32
2022-10-18T06:48:57.308Z,44.06
2022-10-18T06:51:24.385Z,44.45
2022-10-18T06:54:06.326Z,44.25
2022-10-18T06:56:39.507Z,44.04
2022-10-18T06:59:06.628Z,44.20
2022-10-18T07:01:35.142Z,42.95
2022-10-18T07:04:02.211Z,42.65
2022-10-18T07:06:29.287Z,42.47
2022-10-18T07:08:56.387Z,42.85
2022-10-18T07:11:26.249Z,42.81
2022-10-18T07:13:54.926Z,42.37
2022-10-18T07:16:22.322Z,41.96
2022-10-18T07:18:51.886Z,41.47
2022-10-18T07:21:20.862Z,41.32
2022-10-18T07:23:48.486Z,41.14
2022-10-18T07:26:18.507Z,38.23
2022-10-18T07:28:48.161Z,39.88
2022-10-18T07:31:16.206Z,40.09
2022-10-18T07:33:43.287Z,39.72
2022-10-18T07:36:13.648Z,39.46
2022-10-18T07:38:41.893Z,40.06
2022-10-18T07:41:12.218Z,38.58
2022-10-18T07:43:43.026Z,38.66
2022-10-18T07:46:10.046Z,40.18
2022-10-18T07:48:37.146Z,37.69
2022-10-18T07:51:05.329Z,37.66
2022-10-18T07:53:33.927Z,37.61
2022-10-18T07:56:04.556Z,38.17
2022-10-18T07:58:34.746Z,37.12
2022-10-18T08:01:03.287Z,34.51
2022-10-18T08:03:30.447Z,35.56
2022-10-18T08:05:57.705Z,35.69
2022-10-18T08:08:26.107Z,36.38
2022-10-18T08:10:54.947Z,35.32
2022-10-18T08:13:22.665Z,35.08
2022-10-18T08:15:49.745Z,35.17
2022-10-18T08:18:16.907Z,34.80
2022-10-18T08:20:44.556Z,35.10
2022-10-18T08:23:11.712Z,34.74
2022-10-18T08:25:39.090Z,34.35
2022-10-18T08:28:08.222Z,34.66
2022-10-18T08:30:36.367Z,34.53
2022-10-18T08:33:03.586Z,34.27
2022-10-18T08:35:30.911Z,34.19
2022-10-18T08:37:58.228Z,33.58
2022-10-18T08:40:26.225Z,34.08
2022-10-18T08:43:12.867Z,34.70
2022-10-18T08:45:42.744Z,34.38
2022-10-18T08:48:21.388Z,34.51
2022-10-18T08:50:51.509Z,34.51
2022-10-18T08:53:27.914Z,33.40
2022-10-18T08:56:03.747Z,33.69
2022-10-18T08:58:33.351Z,33.58
2022-10-18T09:01:12.087Z,34.16
2022-10-18T09:03:57.593Z,33.90
2022-10-18T09:06:33.987Z,32.70
2022-10-18T09:09:17.547Z,34.70
2022-10-18T09:12:02.196Z,34.56
2022-10-18T09:15:08.405Z,33.72
2022-10-18T09:17:48.546Z,33.92
2022-10-18T09:20:24.594Z,34.15
2022-10-18T09:22:55.410Z,34.40
2022-10-18T09:25:25.446Z,33.51
2022-10-18T09:27:55.626Z,32.79
2022-10-18T09:30:41.426Z,33.21
2022-10-18T09:33:27.948Z,33.69
2022-10-18T09:35:59.265Z,32.94
2022-10-18T09:38:32.466Z,32.69
2022-10-18T09:41:06.706Z,33.02
2022-10-18T09:43:49.914Z,33.34
2022-10-18T09:46:22.086Z,33.54
2022-10-18T09:48:56.058Z,33.79
2022-10-18T09:51:29.665Z,32.98
2022-10-18T09:54:13.986Z,33.63
2022-10-18T09:56:48.593Z,33.92
2022-10-18T09:59:34.169Z,33.65
2022-10-18T10:02:03.555Z,33.54
2022-10-18T10:04:30.715Z,33.05
2022-10-18T10:07:01.005Z,33.61
2022-10-18T10:09:30.551Z,33.53
2022-10-18T10:11:58.692Z,34.01
2022-10-18T10:14:27.989Z,33.30
2022-10-18T10:16:58.692Z,32.41
2022-10-18T10:19:32.328Z,32.72
2022-10-18T10:22:05.752Z,33.59
2022-10-18T10:24:48.413Z,32.19
2022-10-18T10:27:20.148Z,33.22
2022-10-18T10:30:04.147Z,32.71
2022-10-18T10:32:47.071Z,33.52
2022-10-18T10:35:42.151Z,32.73
2022-10-18T10:38:24.781Z,33.25
2022-10-18T10:40:52.149Z,33.31
2022-10-18T10:43:40.122Z,33.53
2022-10-18T10:46:10.469Z,33.21
2022-10-18T10:48:47.989Z,33.10
2022-10-18T10:51:28.129Z,33.25
2022-10-18T10:54:03.907Z,33.30
2022-10-18T10:56:34.041Z,32.33
2022-10-18T10:59:10.462Z,33.50
2022-10-18T11:01:37.630Z,34.37
2022-10-18T11:04:25.608Z,33.31
2022-10-18T11:07:04.867Z,33.67
2022-10-18T11:09:56.445Z,34.55
2022-10-18T11:12:32.980Z,34.75
2022-10-18T11:15:17.427Z,34.81
2022-10-18T11:17:58.389Z,35.51
2022-10-18T11:20:32.205Z,34.98
2022-10-18T11:23:03.663Z,35.01
2022-10-18T11:25:58.912Z,33.80
2022-10-18T11:28:45.745Z,34.36
2022-10-18T11:31:24.069Z,34.88
2022-10-18T11:34:16.028Z,33.26
2022-10-18T11:36:56.103Z,32.36
2022-10-18T11:39:54.889Z,33.68
2022-10-18T11:42:39.987Z,34.21
2022-10-18T11:45:26.600Z,34.87
2022-10-18T11:48:05.588Z,33.16
2022-10-18T11:50:42.961Z,32.90
2022-10-18T11:53:24.988Z,30.99
2022-10-18T11:56:08.429Z,31.41
2022-10-18T11:58:55.329Z,34.09
2022-10-18T12:01:33.102Z,34.98
2022-10-18T12:04:10.429Z,34.63
2022-10-18T12:06:40.928Z,34.91
2022-10-18T12:09:20.009Z,34.44
2022-10-18T12:11:55.798Z,33.84
2022-10-18T12:14:27.276Z,34.39
2022-10-18T12:17:26.464Z,35.27
2022-10-18T12:19:51.891Z,35.33
2022-10-18T12:22:25.903Z,35.06
2022-10-18T12:24:53.067Z,35.14
2022-10-18T12:27:36.790Z,32.58
2022-10-18T12:30:14.456Z,30.96
2022-10-18T12:32:56.390Z,31.60
2022-10-18T12:35:41.529Z,32.01
2022-10-18T12:38:21.668Z,33.21
2022-10-18T12:40:54.807Z,33.44
2022-10-18T12:43:27.289Z,33.61
2022-10-18T12:45:57.145Z,34.51
2022-10-18T12:48:36.337Z,32.66
2022-10-18T12:51:12.706Z,33.98
2022-10-18T12:53:40.748Z,34.22
2022-10-18T12:56:35.129Z,34.76
2022-10-18T12:59:50.046Z,35.26
2022-10-18T13:02:31.955Z,32.67
2022-10-18T13:05:00.771Z,34.90
2022-10-18T13:07:39.650Z,33.73
2022-10-18T13:10:40.189Z,32.07
2022-10-18T13:13:39.041Z,34.80
2022-10-18T13:16:21.173Z,34.17
2022-10-18T13:18:54.509Z,35.88
2022-10-18T13:21:40.376Z,33.70
2022-10-18T13:24:23.998Z,35.04
2022-10-18T13:27:31.436Z,35.28
2022-10-18T13:30:38.368Z,36.09
2022-10-18T13:33:31.832Z,36.10
2022-10-18T13:36:05.368Z,36.70
2022-10-18T13:38:48.562Z,36.23
2022-10-18T13:41:18.701Z,36.29
2022-10-18T13:44:10.897Z,36.22
2022-10-18T13:47:19.467Z,36.00
2022-10-18T13:50:09.790Z,35.62
2022-10-18T13:53:07.809Z,37.35
2022-10-18T13:55:55.789Z,36.32
2022-10-18T13:58:48.967Z,35.07
2022-10-18T14:01:33.453Z,36.54
2022-10-18T14:05:11.164Z,36.15
2022-10-18T14:07:51.617Z,35.72
2022-10-18T14:10:43.242Z,36.63
2022-10-18T14:13:22.869Z,33.81
2022-10-18T14:15:54.748Z,35.02
2022-10-18T14:18:31.450Z,37.08
2022-10-18T14:21:14.058Z,33.71
2022-10-18T14:23:46.187Z,32.91
2022-10-18T14:26:16.807Z,36.28
2022-10-18T14:28:59.583Z,36.63
2022-10-18T14:31:28.188Z,35.75
2022-10-18T14:33:58.904Z,35.36
2022-10-18T14:36:29.655Z,36.84
2022-10-18T14:39:00.711Z,36.58
2022-10-18T14:41:29.949Z,37.29
2022-10-18T14:44:17.888Z,36.59
2022-10-18T14:46:47.368Z,37.12
2022-10-18T14:49:16.269Z,35.47
2022-10-18T14:51:46.568Z,38.01
2022-10-18T14:54:18.169Z,37.06
2022-10-18T14:56:46.247Z,36.55
2022-10-18T14:59:18.815Z,37.37
2022-10-18T15:01:56.691Z,37.46
2022-10-18T15:04:28.536Z,37.51
2022-10-18T15:06:56.991Z,37.29
2022-10-18T15:09:29.891Z,33.92
2022-10-18T15:11:58.161Z,37.31
2022-10-18T15:14:28.820Z,36.62
2022-10-18T15:17:01.781Z,36.15
2022-10-18T15:19:32.068Z,36.13
2022-10-18T15:25:11.503Z,36.68
2022-10-18T15:27:43.595Z,35.47
2022-10-18T15:30:24.325Z,36.53
2022-10-18T15:32:54.549Z,36.73
2022-10-18T15:35:26.477Z,37.00
2022-10-18T15:37:55.867Z,37.39
2022-10-18T15:40:39.148Z,37.22
2022-10-18T15:43:36.070Z,35.87
2022-10-18T15:46:06.509Z,37.05
2022-10-18T15:48:37.522Z,36.44
2022-10-18T15:51:07.141Z,37.30
2022-10-18T15:53:50.402Z,33.42
2022-10-18T15:56:35.887Z,33.25
2022-10-18T15:59:06.325Z,33.45
2022-10-18T16:01:44.531Z,33.78
2022-10-18T16:04:18.797Z,32.99
2022-10-18T16:06:46.007Z,32.96
2022-10-18T16:09:17.144Z,32.94
2022-10-18T16:11:46.061Z,33.83
2022-10-18T16:14:13.744Z,33.49
2022-10-18T16:16:40.861Z,33.85
2022-10-18T16:19:08.373Z,37.21
2022-10-18T16:21:38.043Z,34.92
2022-10-18T16:24:06.564Z,34.87
2022-10-18T16:26:34.962Z,34.68
2022-10-18T16:29:05.197Z,35.70
2022-10-18T16:31:34.926Z,34.65
2022-10-18T16:34:02.040Z,34.51
2022-10-18T16:36:31.789Z,35.16
2022-10-18T16:39:02.766Z,35.00
2022-10-18T16:41:29.947Z,35.76
2022-10-18T16:43:57.004Z,35.44
2022-10-18T16:46:28.106Z,36.37
2022-10-18T16:48:55.944Z,36.59
2022-10-18T16:51:24.086Z,36.41
2022-10-18T16:53:51.944Z,36.52
2022-10-18T16:56:22.549Z,36.78
2022-10-18T16:58:49.709Z,37.17
2022-10-18T17:01:19.175Z,37.77
2022-10-18T17:03:48.774Z,38.09
2022-10-18T17:06:18.280Z,38.39
2022-10-18T17:08:45.741Z,38.56
2022-10-18T17:11:15.284Z,38.87
2022-10-18T17:13:43.586Z,39.26
2022-10-18T17:16:23.049Z,39.43
2022-10-18T17:18:51.781Z,39.42
2022-10-18T17:21:19.644Z,39.69
2022-10-18T17:23:46.856Z,39.81
2022-10-18T17:26:28.257Z,40.27
2022-10-18T17:28:58.641Z,40.31
2022-10-18T17:31:26.143Z,40.40
2022-10-18T17:33:54.631Z,40.58
2022-10-18T17:36:22.543Z,40.34
2022-10-18T17:38:51.278Z,40.40
2022-10-18T17:41:18.905Z,40.94
2022-10-18T17:43:45.944Z,41.22
2022-10-18T17:46:13.805Z,41.03
2022-10-18T17:48:41.303Z,41.41
2022-10-18T17:51:12.786Z,41.46
2022-10-18T17:53:40.028Z,41.63
2022-10-18T17:56:08.337Z,41.96
2022-10-18T17:58:36.103Z,41.91
2022-10-18T18:01:10.880Z,42.13
2022-10-18T18:03:38.861Z,42.56
2022-10-18T18:06:19.031Z,42.60
2022-10-18T18:08:46.981Z,42.55
2022-10-18T18:11:15.362Z,42.52
2022-10-18T18:13:42.722Z,42.65
2022-10-18T18:16:11.979Z,42.80
2022-10-18T18:18:39.201Z,43.05
2022-10-18T18:21:06.460Z,43.04
2022-10-18T18:23:35.041Z,43.10
2022-10-18T18:26:02.246Z,42.62
2022-10-18T18:28:29.416Z,43.01
2022-10-18T18:30:56.580Z,43.09
2022-10-18T18:33:23.840Z,43.11
2022-10-18T18:35:57.871Z,43.47
2022-10-18T18:38:25.683Z,43.40
2022-10-18T18:41:05.300Z,43.34
2022-10-18T18:43:33.282Z,43.50
2022-10-18T18:46:00.443Z,43.66
2022-10-18T18:48:28.160Z,43.72
2022-10-18T18:50:55.603Z,43.58
2022-10-18T18:53:25.999Z,43.34
2022-10-18T18:56:03.461Z,43.24
2022-10-18T18:58:30.608Z,43.35
2022-10-18T19:00:57.942Z,43.52
2022-10-18T19:03:25.281Z,43.43
2022-10-18T19:06:01.930Z,43.60
2022-10-18T19:08:29.274Z,43.88
2022-10-18T19:10:56.363Z,43.87
2022-10-18T19:13:25.000Z,44.29
2022-10-18T19:15:52.043Z,44.02
2022-10-18T19:18:23.188Z,44.14
2022-10-18T19:20:51.142Z,44.35
2022-10-18T19:23:18.240Z,44.46
2022-10-18T19:25:45.353Z,44.75
2022-10-18T19:28:12.406Z,45.12
2022-10-18T19:30:41.021Z,45.17
2022-10-18T19:33:08.202Z,45.08
2022-10-18T19:35:35.279Z,44.80
2022-10-18T19:38:02.360Z,44.58
2022-10-18T19:40:29.465Z,44.88
2022-10-18T19:42:56.560Z,44.89
2022-10-18T19:45:23.641Z,44.76
2022-10-18T19:47:52.133Z,44.88
2022-10-18T19:50:19.275Z,45.10
2022-10-18T19:52:46.420Z,44.71
2022-10-18T19:55:13.619Z,44.82
2022-10-18T19:57:40.707Z,44.78
2022-10-18T20:00:10.869Z,44.81
2022-10-18T20:02:38.582Z,44.80
2022-10-18T20:05:07.961Z,44.84
2022-10-18T20:07:35.200Z,44.79
2022-10-18T20:10:02.383Z,45.04
2022-10-18T20:12:29.701Z,45.07
2022-10-18T20:14:56.981Z,44.92
2022-10-18T20:17:24.100Z,45.06
2022-10-18T20:19:51.121Z,44.81
2022-10-18T20:22:19.601Z,45.19
2022-10-18T20:24:46.721Z,45.28
2022-10-18T20:27:13.830Z,45.14
2022-10-18T20:29:40.942Z,45.33
2022-10-18T20:32:08.383Z,45.58
2022-10-18T20:34:35.510Z,45.34
2022-10-18T20:37:02.942Z,45.08
2022-10-18T20:39:31.720Z,45.56
2022-10-18T20:41:59.202Z,45.48
2022-10-18T20:44:26.464Z,45.31
2022-10-18T20:46:53.482Z,45.47
2022-10-18T20:49:20.663Z,45.52
2022-10-18T20:51:47.802Z,45.53
2022-10-18T20:54:14.902Z,45.79
2022-10-18T20:56:43.582Z,45.69
2022-10-18T20:59:10.660Z,45.95
2022-10-18T21:01:40.119Z,46.13
2022-10-18T21:04:09.482Z,46.13
2022-10-18T21:06:39.753Z,46.36
2022-10-18T21:09:09.321Z,46.45
2022-10-18T21:11:38.839Z,46.66
2022-10-18T21:14:11.339Z,46.60
2022-10-18T21:16:38.720Z,46.63
2022-10-18T21:19:07.680Z,46.72
2022-10-18T21:21:35.461Z,46.24
2022-10-18T21:24:06.931Z,46.38
2022-10-18T21:26:36.683Z,46.38
2022-10-18T21:29:05.284Z,46.61
2022-10-18T21:31:36.357Z,46.38
2022-10-18T21:34:06.100Z,46.30
2022-10-18T21:36:37.222Z,46.25
2022-10-18T21:39:06.722Z,46.60
2022-10-18T21:41:35.081Z,46.26
2022-10-18T21:44:05.612Z,46.11
2022-10-18T21:46:37.566Z,46.31
2022-10-18T21:49:05.652Z,46.22
2022-10-18T21:51:32.900Z,46.28
2022-10-18T21:53:59.987Z,46.29
2022-10-18T21:56:29.060Z,46.61
2022-10-18T21:58:57.480Z,46.25
2022-10-18T22:01:27.338Z,46.12
2022-10-18T22:03:57.340Z,46.45
2022-10-18T22:06:26.145Z,46.41
2022-10-18T22:08:55.624Z,46.46
2022-10-18T22:11:26.408Z,46.44
2022-10-18T22:13:54.503Z,46.46
2022-10-18T22:16:22.020Z,46.60
2022-10-18T22:18:50.381Z,46.80
2022-10-18T22:21:20.359Z,46.78
2022-10-18T22:23:50.322Z,46.09
2022-10-18T22:26:21.502Z,46.33
2022-10-18T22:28:54.831Z,46.38
2022-10-18T22:31:24.583Z,46.18
2022-10-18T22:33:54.863Z,46.37
2022-10-18T22:36:24.360Z,46.78
2022-10-18T22:38:51.804Z,46.64
2022-10-18T22:41:19.673Z,46.59
2022-10-18T22:43:47.180Z,46.76
2022-10-18T22:46:15.459Z,47.00
2022-10-18T22:48:44.182Z,47.00
2022-10-18T22:51:12.361Z,46.78
2022-10-18T22:53:41.920Z,46.53
2022-10-18T22:56:11.763Z,46.56
2022-10-18T22:58:38.821Z,46.27
2022-10-18T23:01:08.482Z,46.23
2022-10-18T23:03:36.299Z,46.16
2022-10-18T23:06:05.345Z,46.33
2022-10-18T23:08:33.082Z,46.59
2022-10-18T23:11:01.600Z,46.46
2022-10-18T23:13:28.604Z,46.27
2022-10-18T23:16:04.413Z,46.11
2022-10-18T23:18:33.113Z,46.23
2022-10-18T23:21:04.564Z,46.16
2022-10-18T23:23:33.920Z,46.14
2022-10-18T23:26:04.079Z,46.28
2022-10-18T23:28:33.884Z,45.93
2022-10-18T23:31:06.367Z,45.95
2022-10-18T23:33:33.400Z,45.90
2022-10-18T23:36:00.557Z,46.34
2022-10-18T23:38:28.981Z,46.03
2022-10-18T23:40:56.481Z,45.83
2022-10-18T23:43:25.201Z,45.85
2022-10-18T23:45:52.752Z,46.13
2022-10-18T23:48:20.041Z,45.64
2022-10-18T23:50:47.901Z,46.15
2022-10-18T23:53:15.196Z,45.91
2022-10-18T23:55:52.860Z,45.97
2022-10-18T23:58:20.270Z,45.90
